createdAt,value
2018-05-23T04:07:45.028Z,98.25
2018-05-23T04:10:13.303Z,98.05
2018-05-23T04:12:41.584Z,98.89
2018-05-23T04:15:11.361Z,99.20
2018-05-23T04:17:40.387Z,99.25
2018-05-23T04:20:17.089Z,98.91
2018-05-23T04:22:45.358Z,98.89
2018-05-23T04:25:13.653Z,98.58
2018-05-23T04:27:41.924Z,98.98
2018-05-23T04:30:10.189Z,99.48
2018-05-23T04:32:38.571Z,99.58
2018-05-23T04:35:06.958Z,99.69
2018-05-23T04:37:37.172Z,99.30
2018-05-23T04:40:12.913Z,99.41
2018-05-23T04:42:50.158Z,99.30
2018-05-23T04:45:26.214Z,99.46
2018-05-23T04:48:01.407Z,99.38
2018-05-23T04:50:35.574Z,99.25
2018-05-23T04:53:11.152Z,99.07
2018-05-23T04:55:39.440Z,98.62
2018-05-23T04:58:14.353Z,98.61
2018-05-23T05:00:44.858Z,99.02
2018-05-23T05:03:13.195Z,99.35
2018-05-23T05:05:41.617Z,99.80
2018-05-23T05:08:22.463Z,99.35
2018-05-23T05:10:51.670Z,99.39
2018-05-23T05:13:42.492Z,98.94
2018-05-23T05:16:18.704Z,98.55
2018-05-23T05:18:48.020Z,98.43
2018-05-23T05:21:19.669Z,98.78
2018-05-23T05:23:49.121Z,98.96
2018-05-23T05:26:27.607Z,98.37
2018-05-23T05:29:09.092Z,98.78
2018-05-23T05:31:37.581Z,98.50
2018-05-23T05:34:12.380Z,98.47
2018-05-23T05:36:41.728Z,98.00
2018-05-23T05:39:10.080Z,98.25
2018-05-23T05:41:46.774Z,98.56
2018-05-23T05:44:30.413Z,98.85
2018-05-23T05:46:58.932Z,98.30
2018-05-23T05:49:27.246Z,97.96
2018-05-23T05:51:56.560Z,97.06
2018-05-23T05:54:31.974Z,96.70
2018-05-23T05:57:05.334Z,96.53
2018-05-23T05:59:33.669Z,96.58
2018-05-23T06:02:11.863Z,96.42
2018-05-23T06:04:45.274Z,97.07
2018-05-23T06:07:13.549Z,97.39
2018-05-23T06:09:42.086Z,97.51
2018-05-23T06:12:10.338Z,97.40
2018-05-23T06:14:39.632Z,97.27
2018-05-23T06:17:08.941Z,96.82
2018-05-23T06:19:38.261Z,96.63
2018-05-23T06:22:06.631Z,97.10
2018-05-23T06:24:35.032Z,97.72
2018-05-23T06:27:05.549Z,98.21
2018-05-23T06:29:36.986Z,98.60
2018-05-23T06:32:05.239Z,98.95
2018-05-23T06:34:33.529Z,99.07
2018-05-23T06:37:01.823Z,99.38
2018-05-23T06:39:30.119Z,99.46
2018-05-23T06:41:58.393Z,98.75
2018-05-23T06:44:27.510Z,97.99
2018-05-23T06:46:55.766Z,97.38
2018-05-23T06:49:24.053Z,97.88
2018-05-23T06:51:52.347Z,97.83
2018-05-23T06:54:21.761Z,97.83
2018-05-23T06:56:54.420Z,97.68
2018-05-23T06:59:22.797Z,97.85
2018-05-23T07:01:51.143Z,98.19
2018-05-23T07:04:24.153Z,98.04
2018-05-23T07:06:52.424Z,98.30
2018-05-23T07:09:20.685Z,97.89
2018-05-23T07:11:48.992Z,97.53
2018-05-23T07:14:17.248Z,97.60
2018-05-23T07:16:45.520Z,97.33
2018-05-23T07:19:13.821Z,97.08
2018-05-23T07:21:42.107Z,97.55
2018-05-23T07:24:11.408Z,98.45
2018-05-23T07:26:39.698Z,99.04
2018-05-23T07:29:09.137Z,97.77
2018-05-23T07:31:37.461Z,96.80
2018-05-23T07:34:05.709Z,96.06
2018-05-23T07:36:34.016Z,95.73
2018-05-23T07:39:02.311Z,95.47
2018-05-23T07:41:30.584Z,95.68
2018-05-23T07:43:58.876Z,96.04
2018-05-23T07:46:27.915Z,96.26
2018-05-23T07:48:56.193Z,96.23
2018-05-23T07:51:24.596Z,96.65
2018-05-23T07:53:52.885Z,96.94
2018-05-23T07:56:22.109Z,96.87
2018-05-23T07:58:50.935Z,97.01
2018-05-23T08:01:19.280Z,96.78
2018-05-23T08:03:48.655Z,96.26
2018-05-23T08:06:16.923Z,97.37
2018-05-23T08:08:45.236Z,97.80
2018-05-23T08:11:13.517Z,97.48
2018-05-23T08:13:41.789Z,97.76
2018-05-23T08:16:10.583Z,97.56
2018-05-23T08:18:39.621Z,97.93
2018-05-23T08:21:07.923Z,97.69
2018-05-23T08:23:36.215Z,98.14
2018-05-23T08:26:04.482Z,98.00
2018-05-23T08:28:32.771Z,97.49
2018-05-23T08:31:01.083Z,97.31
2018-05-23T08:33:30.113Z,97.95
2018-05-23T08:35:58.405Z,97.59
2018-05-23T08:38:28.296Z,97.19
2018-05-23T08:40:56.552Z,97.32
2018-05-23T08:43:25.594Z,96.88
2018-05-23T08:45:53.967Z,96.47
2018-05-23T08:48:22.189Z,96.41
2018-05-23T08:50:51.829Z,96.44
2018-05-23T08:53:20.109Z,95.52
2018-05-23T08:55:48.400Z,95.72
2018-05-23T08:58:16.669Z,95.24
2018-05-23T09:00:44.948Z,92.88
2018-05-23T09:03:13.236Z,92.40
2018-05-23T09:05:41.512Z,86.79
2018-05-23T09:08:09.810Z,87.75
2018-05-23T09:10:38.086Z,89.81
2018-05-23T09:13:06.377Z,89.30
2018-05-23T09:15:34.643Z,91.67
2018-05-23T09:18:03.672Z,91.87
2018-05-23T09:20:32.731Z,91.86
2018-05-23T09:23:01.015Z,90.59
2018-05-23T09:25:29.401Z,90.68
2018-05-23T09:27:57.619Z,92.35
2018-05-23T09:30:25.937Z,93.70
2018-05-23T09:32:55.007Z,93.35
2018-05-23T09:35:23.277Z,93.36
2018-05-23T09:37:51.545Z,93.83
2018-05-23T09:40:19.842Z,93.75
2018-05-23T09:42:48.119Z,91.71
2018-05-23T09:45:16.461Z,91.97
2018-05-23T09:47:44.668Z,90.82
2018-05-23T09:50:12.950Z,90.85
2018-05-23T09:52:41.225Z,90.88
2018-05-23T09:55:09.608Z,90.40
2018-05-23T09:57:37.818Z,88.17
2018-05-23T10:00:06.087Z,89.53
2018-05-23T10:02:34.369Z,89.42
2018-05-23T10:05:02.645Z,90.52
2018-05-23T10:07:30.965Z,88.14
2018-05-23T10:09:59.373Z,87.00
2018-05-23T10:12:27.652Z,89.15
2018-05-23T10:14:55.957Z,89.06
2018-05-23T10:17:24.233Z,88.60
2018-05-23T10:19:52.544Z,89.20
2018-05-23T10:22:20.808Z,86.40
2018-05-23T10:24:49.067Z,85.57
2018-05-23T10:27:17.469Z,81.77
2018-05-23T10:29:45.757Z,84.02
2018-05-23T10:32:14.934Z,86.50
2018-05-23T10:34:43.189Z,83.81
2018-05-23T10:37:11.483Z,81.06
2018-05-23T10:39:39.773Z,82.59
2018-05-23T10:42:08.042Z,81.73
2018-05-23T10:44:36.318Z,82.83
2018-05-23T10:47:04.619Z,83.71
2018-05-23T10:49:32.918Z,84.30
2018-05-23T10:52:02.052Z,81.02
2018-05-23T10:54:31.700Z,78.55
2018-05-23T10:57:00.079Z,78.85
2018-05-23T10:59:28.639Z,79.26
2018-05-23T11:01:56.939Z,79.18
2018-05-23T11:04:25.211Z,80.29
2018-05-23T11:06:53.541Z,77.16
2018-05-23T11:09:21.821Z,80.47
2018-05-23T11:11:50.097Z,77.38
2018-05-23T11:14:18.383Z,78.54
2018-05-23T11:16:46.678Z,82.06
2018-05-23T11:19:14.940Z,78.46
2018-05-23T11:21:43.223Z,78.74
2018-05-23T11:24:11.502Z,77.25
2018-05-23T11:26:39.790Z,79.20
2018-05-23T11:29:08.079Z,82.54
2018-05-23T11:31:36.340Z,77.78
2018-05-23T11:34:04.633Z,81.10
2018-05-23T11:36:32.915Z,79.80
2018-05-23T11:39:01.182Z,80.46
2018-05-23T11:41:30.397Z,79.10
2018-05-23T11:43:58.676Z,79.49
2018-05-23T11:46:27.061Z,80.38
2018-05-23T11:48:55.277Z,79.98
2018-05-23T11:51:24.317Z,81.78
2018-05-23T11:53:52.584Z,78.52
2018-05-23T11:56:20.861Z,76.34
2018-05-23T11:58:49.108Z,76.52
2018-05-23T12:01:17.384Z,76.45
2018-05-23T12:03:45.689Z,76.92
2018-05-23T12:06:13.962Z,76.56
2018-05-23T12:08:42.264Z,75.45
2018-05-23T12:11:11.634Z,78.42
2018-05-23T12:13:39.917Z,77.14
2018-05-23T12:16:08.207Z,76.19
2018-05-23T12:18:36.486Z,77.27
2018-05-23T12:21:04.786Z,79.90
2018-05-23T12:23:33.077Z,78.84
2018-05-23T12:26:01.335Z,77.77
2018-05-23T12:28:29.632Z,77.26
2018-05-23T12:30:57.885Z,78.08
2018-05-23T12:33:26.186Z,78.59
2018-05-23T12:35:54.471Z,79.84
2018-05-23T12:38:23.135Z,79.06
2018-05-23T12:40:51.532Z,80.05
2018-05-23T12:43:19.735Z,81.78
2018-05-23T12:45:48.799Z,80.62
2018-05-23T12:48:17.086Z,80.68
2018-05-23T12:50:45.375Z,80.99
2018-05-23T12:53:13.706Z,81.32
2018-05-23T12:55:42.011Z,81.32
2018-05-23T12:58:10.324Z,81.16
2018-05-23T13:00:38.595Z,81.89
2018-05-23T13:03:07.652Z,81.41
2018-05-23T13:05:35.946Z,79.08
2018-05-23T13:08:05.214Z,77.53
2018-05-23T13:10:33.532Z,76.55
2018-05-23T13:13:02.624Z,76.59
2018-05-23T13:15:31.809Z,76.65
2018-05-23T13:18:00.201Z,75.62
2018-05-23T13:20:28.399Z,76.78
2018-05-23T13:22:56.715Z,75.98
2018-05-23T13:25:24.987Z,74.99
2018-05-23T13:27:53.244Z,74.95
2018-05-23T13:30:22.293Z,73.99
2018-05-23T13:32:50.593Z,72.98
2018-05-23T13:35:18.897Z,72.73
2018-05-23T13:37:47.148Z,72.85
2018-05-23T13:40:15.431Z,74.48
2018-05-23T13:42:43.753Z,74.71
2018-05-23T13:45:12.017Z,72.46
2018-05-23T13:47:40.309Z,74.68
2018-05-23T13:50:08.594Z,72.11
2018-05-23T13:52:37.279Z,71.95
2018-05-23T13:55:05.603Z,75.78
2018-05-23T13:57:33.864Z,74.48
2018-05-23T14:00:02.132Z,72.29
2018-05-23T14:02:30.437Z,71.12
2018-05-23T14:04:58.931Z,73.38
2018-05-23T14:07:28.272Z,72.31
2018-05-23T14:09:59.977Z,70.69
2018-05-23T14:12:43.301Z,71.28
2018-05-23T14:15:11.606Z,71.59
2018-05-23T14:17:42.048Z,71.87
2018-05-23T14:20:11.248Z,66.66
2018-05-23T14:22:39.540Z,67.86
2018-05-23T15:13:42.357Z,58.73
2018-05-23T15:16:11.410Z,59.10
2018-05-23T15:18:39.699Z,56.44
2018-05-23T15:21:07.971Z,59.37
2018-05-23T15:23:36.256Z,57.14
2018-05-23T15:26:08.435Z,56.53
2018-05-23T15:28:37.719Z,55.23
2018-05-23T15:31:06.140Z,55.72
2018-05-23T15:33:36.298Z,58.24
2018-05-23T15:36:09.015Z,57.16
2018-05-23T15:38:37.377Z,57.33
2018-05-23T15:41:05.773Z,56.81
2018-05-23T15:43:34.047Z,56.23
2018-05-23T15:46:02.359Z,57.35
2018-05-23T15:48:31.410Z,56.45
2018-05-23T15:50:59.693Z,55.89
2018-05-23T15:53:28.071Z,55.02
2018-05-23T15:55:56.349Z,54.50
2018-05-23T15:58:24.665Z,56.23
2018-05-23T16:00:53.726Z,54.86
2018-05-23T16:03:21.993Z,55.80
2018-05-23T16:05:50.274Z,56.42
2018-05-23T16:08:18.554Z,56.87
2018-05-23T16:10:46.828Z,57.88
2018-05-23T16:13:15.158Z,57.61
2018-05-23T16:15:47.113Z,61.48
2018-05-23T16:18:16.154Z,57.72
2018-05-23T16:20:44.432Z,58.19
2018-05-23T16:23:12.721Z,54.08
2018-05-23T16:25:40.995Z,60.05
2018-05-23T16:28:09.287Z,74.25
2018-05-23T16:30:38.262Z,74.65
2018-05-23T16:33:06.603Z,76.84
2018-05-23T16:35:34.903Z,78.40
2018-05-23T16:38:03.195Z,81.09
2018-05-23T16:40:31.478Z,79.80
2018-05-23T18:33:53.300Z,94.90
2018-05-23T18:36:21.620Z,94.47
2018-05-23T18:38:49.895Z,94.29
2018-05-23T18:41:18.181Z,95.10
2018-05-23T18:43:46.492Z,95.21
2018-05-23T18:46:14.790Z,96.06
2018-05-23T18:48:43.090Z,96.58
2018-05-23T18:51:11.358Z,96.86
2018-05-23T18:53:40.393Z,97.42
2018-05-23T18:56:08.683Z,97.33
2018-05-23T18:58:36.962Z,97.15
2018-05-23T19:01:05.264Z,97.21
2018-05-23T19:03:33.603Z,97.58
2018-05-23T19:06:01.897Z,98.00
2018-05-23T19:08:30.186Z,97.38
2018-05-23T19:10:59.229Z,96.33
2018-05-23T19:13:27.509Z,96.74
2018-05-23T19:15:56.549Z,96.95
2018-05-23T19:18:24.836Z,97.72
2018-05-23T19:20:53.109Z,97.70
2018-05-23T19:23:23.338Z,97.75
2018-05-23T19:25:51.616Z,97.66
2018-05-23T19:28:19.883Z,97.68
2018-05-23T19:30:48.169Z,97.94
2018-05-23T19:33:16.452Z,98.07
2018-05-23T19:35:44.719Z,98.06
2018-05-23T19:38:13.015Z,98.41
2018-05-23T19:40:41.286Z,97.73
2018-05-23T19:43:09.590Z,97.31
2018-05-23T19:45:37.873Z,97.40
2018-05-23T19:48:06.895Z,98.05
2018-05-23T19:50:36.167Z,98.22
2018-05-23T19:53:05.207Z,97.93
2018-05-23T19:55:33.501Z,98.36
2018-05-23T19:58:01.777Z,98.63
2018-05-23T20:00:30.050Z,98.58
2018-05-23T20:02:58.363Z,98.22
2018-05-23T20:05:26.750Z,98.64
2018-05-23T20:07:59.272Z,98.82
2018-05-23T20:10:27.550Z,98.56
2018-05-23T20:12:55.820Z,98.57
2018-05-23T20:15:24.128Z,98.55
2018-05-23T20:17:53.201Z,98.66
2018-05-23T20:20:21.503Z,98.55
2018-05-23T20:22:49.769Z,98.57
2018-05-23T20:25:18.032Z,98.82
2018-05-23T20:27:46.360Z,98.01
2018-05-23T20:30:14.644Z,98.20
2018-05-23T20:32:42.962Z,97.71
2018-05-23T20:35:11.235Z,98.04
2018-05-23T20:37:39.510Z,97.91
2018-05-23T20:40:07.860Z,98.03
2018-05-23T20:42:36.898Z,98.20
2018-05-23T20:45:05.216Z,98.19
2018-05-23T20:47:33.480Z,98.13
2018-05-23T20:50:01.786Z,98.00
2018-05-23T20:52:30.072Z,97.82
2018-05-23T20:54:58.360Z,98.00
2018-05-23T20:57:26.653Z,98.23
2018-05-23T20:59:54.954Z,98.04
2018-05-23T21:02:23.250Z,97.81
2018-05-23T21:04:51.568Z,97.55
2018-05-23T21:07:20.609Z,97.76
2018-05-23T21:09:48.904Z,97.50
2018-05-23T21:12:17.178Z,97.53
2018-05-23T21:14:45.473Z,98.04
2018-05-23T21:17:13.781Z,97.66
2018-05-23T21:19:42.848Z,98.24
2018-05-23T21:22:11.163Z,97.92
2018-05-23T21:24:39.425Z,97.99
2018-05-23T21:27:07.716Z,97.51
2018-05-23T21:29:36.022Z,98.05
2018-05-23T21:32:04.305Z,98.08
2018-05-23T21:34:32.699Z,98.45
2018-05-23T21:37:01.686Z,98.82
2018-05-23T21:39:29.945Z,98.24
2018-05-23T21:41:58.290Z,98.07
2018-05-23T21:44:27.313Z,98.08
2018-05-23T21:46:55.622Z,97.69
2018-05-23T21:49:23.891Z,98.44
2018-05-23T21:51:52.190Z,97.97
2018-05-23T21:54:20.491Z,97.51
2018-05-23T21:56:48.790Z,97.72
2018-05-23T21:59:17.113Z,97.95
2018-05-23T22:01:46.281Z,97.99
2018-05-23T22:04:14.557Z,97.69
2018-05-23T22:06:42.856Z,98.30
2018-05-23T22:09:11.140Z,98.55
2018-05-23T22:11:39.429Z,98.69
2018-05-23T22:14:07.686Z,98.17
2018-05-23T22:16:35.953Z,98.71
2018-05-23T22:19:04.275Z,98.39
2018-05-23T22:21:32.559Z,98.18
2018-05-23T22:24:00.861Z,98.05
2018-05-23T22:26:29.127Z,98.24
2018-05-23T22:28:57.385Z,98.10
2018-05-23T22:31:25.676Z,98.32
2018-05-23T22:33:54.433Z,97.61
2018-05-23T22:36:22.744Z,97.63
2018-05-23T22:38:51.015Z,97.64
2018-05-23T22:41:19.297Z,98.04
2018-05-23T22:43:47.596Z,97.61
2018-05-23T22:46:15.872Z,98.39
2018-05-23T22:48:44.922Z,98.87
2018-05-23T22:51:13.188Z,98.08
2018-05-23T22:53:41.463Z,97.74
2018-05-23T22:56:09.786Z,97.69
2018-05-23T22:58:38.054Z,97.26
2018-05-23T23:01:07.138Z,97.38
2018-05-23T23:03:36.213Z,97.10
2018-05-23T23:06:04.477Z,97.30
2018-05-23T23:08:32.755Z,96.84
2018-05-23T23:11:01.041Z,97.01
2018-05-23T23:13:29.350Z,97.79
2018-05-23T23:15:57.624Z,97.73
2018-05-23T23:18:25.907Z,97.86
2018-05-23T23:20:54.277Z,98.16
2018-05-23T23:23:22.557Z,97.93
2018-05-23T23:25:50.868Z,98.10
2018-05-23T23:28:19.141Z,98.41
2018-05-23T23:30:47.420Z,98.47
2018-05-23T23:33:15.704Z,98.16
2018-05-23T23:35:43.974Z,98.07
2018-05-23T23:38:13.093Z,98.11
2018-05-23T23:40:41.380Z,98.21
2018-05-23T23:43:09.646Z,97.61
2018-05-23T23:45:37.947Z,97.89
2018-05-23T23:48:06.226Z,97.68
2018-05-23T23:50:34.515Z,97.70
2018-05-23T23:53:02.797Z,97.29
2018-05-23T23:55:31.083Z,97.18
2018-05-23T23:57:59.353Z,96.60
